createdAt,value
2022-10-31T00:00:54.300Z,101389.03
2022-10-31T00:03:41.032Z,101391.72
2022-10-31T00:06:27.878Z,101392.56
2022-10-31T00:09:14.900Z,101395.97
2022-10-31T00:12:01.559Z,101396.84
2022-10-31T00:14:49.008Z,101391.56
2022-10-31T00:17:38.309Z,101398.59
2022-10-31T00:20:24.772Z,101399.53
2022-10-31T00:23:12.703Z,101403.91
2022-10-31T00:26:03.034Z,101403.94
2022-10-31T00:28:50.199Z,101404.00
2022-10-31T00:31:36.973Z,101403.03
2022-10-31T00:34:24.948Z,101402.09
2022-10-31T00:37:12.109Z,101406.47
2022-10-31T00:39:59.008Z,101412.59
2022-10-31T00:42:45.821Z,101415.31
2022-10-31T00:45:32.582Z,101412.66
2022-10-31T00:48:19.478Z,101411.78
2022-10-31T00:51:08.033Z,101413.66
2022-10-31T00:53:54.958Z,101421.59
2022-10-31T00:56:41.629Z,101425.09
2022-10-31T00:59:28.474Z,101422.53
2022-10-31T01:02:16.142Z,101419.94
2022-10-31T01:05:02.935Z,101423.59
2022-10-31T01:07:51.271Z,101418.34
2022-10-31T01:10:38.061Z,101421.00
2022-10-31T01:13:24.515Z,101428.09
2022-10-31T01:16:14.479Z,101421.06
2022-10-31T01:19:01.155Z,101422.88
2022-10-31T01:21:47.855Z,101421.22
2022-10-31T01:24:36.282Z,101436.19
2022-10-31T01:27:23.006Z,101437.09
2022-10-31T01:30:10.671Z,101438.88
2022-10-31T01:32:57.218Z,101438.94
2022-10-31T01:35:45.646Z,101440.72
2022-10-31T01:38:35.295Z,101440.81
2022-10-31T01:41:27.779Z,101444.34
2022-10-31T01:44:51.879Z,101443.50
2022-10-31T01:47:45.643Z,101442.66
2022-10-31T01:50:37.277Z,101445.31
2022-10-31T01:53:27.273Z,101437.22
2022-10-31T01:56:17.080Z,101450.22
2022-10-31T01:59:10.080Z,101449.47
2022-10-31T02:01:56.591Z,101445.16
2022-10-31T02:04:43.995Z,101445.91
2022-10-31T02:07:38.848Z,101449.47
2022-10-31T02:10:26.738Z,101438.88
2022-10-31T02:13:15.168Z,101445.03
2022-10-31T02:16:11.491Z,101458.28
2022-10-31T02:18:59.016Z,101453.94
2022-10-31T02:21:53.564Z,101453.97
2022-10-31T02:24:48.520Z,101457.50
2022-10-31T02:28:08.811Z,101461.00
2022-10-31T02:31:08.104Z,101455.75
2022-10-31T02:34:00.437Z,101463.59
2022-10-31T02:36:58.476Z,101450.38
2022-10-31T02:39:53.791Z,101459.22
2022-10-31T02:42:54.930Z,101455.69
2022-10-31T02:45:49.319Z,101453.97
2022-10-31T02:48:42.048Z,101451.25
2022-10-31T02:51:29.488Z,101449.50
2022-10-31T02:54:21.934Z,101444.28
2022-10-31T02:57:10.636Z,101455.72
2022-10-31T03:00:02.780Z,101459.19
2022-10-31T03:03:03.713Z,101459.28
2022-10-31T03:06:00.974Z,101460.22
2022-10-31T03:08:56.030Z,101454.97
2022-10-31T03:11:48.962Z,101454.09
2022-10-31T03:14:43.317Z,101454.13
2022-10-31T03:17:36.462Z,101447.97
2022-10-31T03:20:28.506Z,101455.06
2022-10-31T03:23:19.767Z,101457.69
2022-10-31T03:26:13.602Z,101459.47
2022-10-31T03:29:05.161Z,101457.75
2022-10-31T03:31:58.019Z,101456.00
2022-10-31T03:34:47.804Z,101445.56
2022-10-31T03:37:41.694Z,101466.63
2022-10-31T03:40:37.247Z,101471.06
2022-10-31T03:43:30.716Z,101471.09
2022-10-31T03:46:17.594Z,101478.13
2022-10-31T03:49:05.360Z,101477.31
2022-10-31T03:52:00.307Z,101485.25
2022-10-31T03:54:48.584Z,101478.28
2022-10-31T03:57:41.533Z,101499.38
2022-10-31T04:00:32.812Z,101510.56
2022-10-31T04:03:23.627Z,101509.56
2022-10-31T04:06:16.372Z,101513.16
2022-10-31T04:09:06.870Z,101519.38
2022-10-31T04:11:58.678Z,101503.56
2022-10-31T04:14:59.754Z,101512.31
2022-10-31T04:17:49.712Z,101514.97
2022-10-31T04:20:40.818Z,101518.47
2022-10-31T04:23:29.098Z,101517.53
2022-10-31T04:26:16.003Z,101516.66
2022-10-31T04:29:04.879Z,101493.16
2022-10-31T04:31:53.071Z,101519.38
2022-10-31T04:34:39.820Z,101521.19
2022-10-31T04:37:26.553Z,101516.00
2022-10-31T04:40:13.695Z,101518.56
2022-10-31T04:43:06.449Z,101516.00
2022-10-31T04:45:53.277Z,101512.50
2022-10-31T04:48:42.570Z,101514.25
2022-10-31T04:51:29.312Z,101510.72
2022-10-31T04:54:16.185Z,101511.63
2022-10-31T04:57:14.782Z,101518.66
2022-10-31T05:00:02.969Z,101515.16
2022-10-31T05:02:51.115Z,101518.66
2022-10-31T05:05:38.972Z,101522.97
2022-10-31T05:08:26.207Z,101524.69
2022-10-31T05:11:14.187Z,101522.94
2022-10-31T05:14:00.798Z,101535.22
2022-10-31T05:17:17.032Z,101523.75
2022-10-31T05:20:35.649Z,101529.06
2022-10-31T05:23:33.971Z,101534.38
2022-10-31T05:26:20.697Z,101526.44
2022-10-31T05:29:07.970Z,101529.13
2022-10-31T05:31:55.907Z,101533.59
2022-10-31T05:35:06.181Z,101530.09
2022-10-31T05:38:13.043Z,101529.25
2022-10-31T05:41:02.242Z,101536.28
2022-10-31T05:43:52.207Z,101534.53
2022-10-31T05:46:44.647Z,101541.53
2022-10-31T05:49:50.299Z,101541.56
2022-10-31T05:52:57.870Z,101550.38
2022-10-31T05:55:50.426Z,101560.09
2022-10-31T05:58:41.043Z,101552.16
2022-10-31T06:01:28.424Z,101557.44
2022-10-31T06:04:17.244Z,101559.22
2022-10-31T06:07:04.049Z,101558.28
2022-10-31T06:09:50.695Z,101563.50
2022-10-31T06:12:41.739Z,101559.84
2022-10-31T06:15:48.999Z,101562.47
2022-10-31T06:18:38.251Z,101567.72
2022-10-31T06:21:25.364Z,101572.06
2022-10-31T06:24:11.792Z,101571.97
2022-10-31T06:27:25.205Z,101566.66
2022-10-31T06:30:12.898Z,101570.97
2022-10-31T06:33:05.817Z,101576.22
2022-10-31T06:35:55.769Z,101570.88
2022-10-31T06:38:42.552Z,101579.59
2022-10-31T06:41:30.313Z,101581.34
2022-10-31T06:44:17.087Z,101575.09
2022-10-31T06:47:19.350Z,101585.50
2022-10-31T06:50:17.657Z,101589.81
2022-10-31T06:53:07.772Z,101597.72
2022-10-31T06:55:54.264Z,101606.50
2022-10-31T06:58:42.948Z,101610.84
2022-10-31T07:01:31.941Z,101607.22
2022-10-31T07:04:20.257Z,101612.31
2022-10-31T07:07:09.320Z,101611.34
2022-10-31T07:09:58.071Z,101620.00
2022-10-31T07:13:03.456Z,101610.13
2022-10-31T07:15:52.696Z,101609.06
2022-10-31T07:18:39.480Z,101609.66
2022-10-31T07:21:26.187Z,101609.44
2022-10-31T07:24:14.249Z,101619.72
2022-10-31T07:27:03.689Z,101616.81
2022-10-31T07:29:50.469Z,101612.84
2022-10-31T07:32:41.331Z,101615.06
2022-10-31T07:35:30.244Z,101613.69
2022-10-31T07:38:18.507Z,101618.88
2022-10-31T07:41:06.890Z,101616.69
2022-10-31T07:43:59.046Z,101625.00
2022-10-31T07:47:15.369Z,101621.56
2022-10-31T07:50:23.135Z,101623.66
2022-10-31T07:53:42.212Z,101628.41
2022-10-31T07:56:43.693Z,101626.38
2022-10-31T07:59:30.389Z,101640.22
2022-10-31T08:02:17.065Z,101631.00
2022-10-31T08:05:30.034Z,101639.75
2022-10-31T08:08:46.709Z,101642.88
2022-10-31T08:11:33.433Z,101639.91
2022-10-31T08:14:23.457Z,101646.28
2022-10-31T08:17:12.198Z,101642.00
2022-10-31T08:20:10.205Z,101646.72
2022-10-31T08:23:06.467Z,101645.09
2022-10-31T08:25:55.102Z,101641.38
2022-10-31T08:28:43.546Z,101646.66
2022-10-31T08:31:33.974Z,101646.41
2022-10-31T08:34:41.161Z,101646.13
2022-10-31T08:37:46.349Z,101649.38
2022-10-31T08:40:36.159Z,101641.13
2022-10-31T08:43:23.156Z,101644.44
2022-10-31T08:46:10.676Z,101644.34
2022-10-31T08:49:00.890Z,101650.22
2022-10-31T08:51:49.949Z,101650.06
2022-10-31T08:54:36.967Z,101649.72
2022-10-31T08:57:42.932Z,101657.72
2022-10-31T09:00:31.422Z,101658.47
2022-10-31T09:03:24.131Z,101659.28
2022-10-31T09:06:12.184Z,101650.16
2022-10-31T09:08:59.713Z,101654.47
2022-10-31T09:11:46.515Z,101646.19
2022-10-31T09:14:51.838Z,101645.97
2022-10-31T09:17:48.707Z,101651.00
2022-10-31T09:20:43.576Z,101655.22
2022-10-31T09:23:33.051Z,101651.53
2022-10-31T09:26:20.638Z,101647.75
2022-10-31T09:29:16.394Z,101649.53
2022-10-31T09:32:04.169Z,101652.88
2022-10-31T09:34:54.057Z,101651.19
2022-10-31T09:37:40.861Z,101663.53
2022-10-31T09:40:34.880Z,101658.56
2022-10-31T09:43:28.258Z,101664.59
2022-10-31T09:46:23.695Z,101661.13
2022-10-31T09:49:52.384Z,101671.38
2022-10-31T09:52:41.933Z,101674.09
2022-10-31T09:55:37.191Z,101671.38
2022-10-31T09:58:28.590Z,101673.16
2022-10-31T10:01:35.405Z,101673.88
2022-10-31T10:04:39.411Z,101676.09
2022-10-31T10:07:43.979Z,101681.22
2022-10-31T10:10:57.289Z,101673.44
2022-10-31T10:13:59.876Z,101671.03
2022-10-31T10:17:02.993Z,101668.03
2022-10-31T10:20:05.982Z,101671.25
2022-10-31T10:23:04.539Z,101661.53
2022-10-31T10:26:00.146Z,101670.59
2022-10-31T10:28:49.794Z,101662.72
2022-10-31T10:31:42.619Z,101654.97
2022-10-31T10:34:34.631Z,101656.72
2022-10-31T10:37:29.012Z,101653.63
2022-10-31T10:40:18.967Z,101657.47
2022-10-31T10:43:32.912Z,101652.44
2022-10-31T10:46:38.744Z,101654.47
2022-10-31T10:49:32.171Z,101654.31
2022-10-31T10:52:50.560Z,101652.06
2022-10-31T10:55:44.920Z,101648.72
2022-10-31T10:58:32.907Z,101654.97
2022-10-31T11:01:19.471Z,101645.22
2022-10-31T11:04:26.139Z,101639.38
2022-10-31T11:07:13.849Z,101626.69
2022-10-31T11:10:06.097Z,101634.59
2022-10-31T11:13:24.398Z,101640.75
2022-10-31T11:16:15.104Z,101648.44
2022-10-31T11:19:15.828Z,101649.25
2022-10-31T11:22:08.147Z,101638.88
2022-10-31T11:24:54.623Z,101636.47
2022-10-31T11:27:41.358Z,101629.59
2022-10-31T11:30:28.554Z,101627.19
2022-10-31T11:33:22.841Z,101622.38
2022-10-31T11:36:18.487Z,101621.56
2022-10-31T11:39:07.834Z,101616.34
2022-10-31T11:41:56.357Z,101622.34
2022-10-31T11:44:46.477Z,101628.28
2022-10-31T11:47:34.442Z,101631.03
2022-10-31T11:50:25.318Z,101619.19
2022-10-31T11:53:17.204Z,101629.97
2022-10-31T11:56:07.578Z,101625.22
2022-10-31T11:58:58.622Z,101631.63
2022-10-31T12:01:50.119Z,101623.81
2022-10-31T12:04:44.161Z,101626.06
2022-10-31T12:07:32.467Z,101626.75
2022-10-31T12:10:26.875Z,101625.34
2022-10-31T12:13:35.341Z,101616.56
2022-10-31T12:16:29.143Z,101616.78
2022-10-31T12:19:27.361Z,101615.44
2022-10-31T12:22:22.592Z,101610.28
2022-10-31T12:25:24.094Z,101613.09
2022-10-31T12:28:26.389Z,101608.75
2022-10-31T12:31:29.494Z,101614.97
2022-10-31T12:34:48.651Z,101612.91
2022-10-31T12:37:53.205Z,101612.34
2022-10-31T12:41:04.187Z,101612.63
2022-10-31T12:43:59.395Z,101605.63
2022-10-31T12:47:00.958Z,101598.31
2022-10-31T12:49:56.488Z,101598.78
2022-10-31T12:52:58.676Z,101595.38
2022-10-31T12:56:04.184Z,101600.66
2022-10-31T12:58:57.621Z,101596.59
2022-10-31T13:01:51.559Z,101598.47
2022-10-31T13:04:45.661Z,101597.00
2022-10-31T13:07:38.409Z,101598.34
2022-10-31T13:10:29.105Z,101583.72
2022-10-31T13:13:20.538Z,101581.25
2022-10-31T13:16:13.734Z,101581.06
2022-10-31T13:19:06.719Z,101584.53
2022-10-31T13:22:02.142Z,101582.25
2022-10-31T13:24:55.654Z,101582.25
2022-10-31T13:27:49.485Z,101567.19
2022-10-31T13:30:42.048Z,101573.41
2022-10-31T13:33:34.080Z,101572.84
2022-10-31T13:36:28.366Z,101572.22
2022-10-31T13:39:25.561Z,101579.22
2022-10-31T13:42:20.565Z,101574.16
2022-10-31T13:45:22.533Z,101571.22
2022-10-31T13:48:35.855Z,101578.88
2022-10-31T13:51:33.399Z,101572.06
2022-10-31T13:54:24.382Z,101568.72
2022-10-31T13:57:19.250Z,101568.84
2022-10-31T14:00:09.406Z,101563.50
2022-10-31T14:03:00.037Z,101565.34
2022-10-31T14:05:55.507Z,101563.59
2022-10-31T14:08:49.075Z,101556.66
2022-10-31T14:11:37.166Z,101556.72
2022-10-31T14:14:28.905Z,101555.84
2022-10-31T14:17:25.809Z,101560.59
2022-10-31T14:20:41.045Z,101555.41
2022-10-31T14:23:37.433Z,101548.22
2022-10-31T14:26:34.715Z,101551.44
2022-10-31T14:29:29.937Z,101551.63
2022-10-31T14:32:24.248Z,101530.22
2022-10-31T14:35:21.250Z,101556.41
2022-10-31T14:38:27.832Z,101550.72
2022-10-31T14:41:46.921Z,101545.78
2022-10-31T14:45:03.685Z,101539.88
2022-10-31T14:48:06.973Z,101540.47
2022-10-31T14:50:56.402Z,101541.66
2022-10-31T14:53:49.556Z,101543.78
2022-10-31T14:56:39.632Z,101531.34
2022-10-31T14:59:31.467Z,101537.81
2022-10-31T15:02:25.261Z,101535.56
2022-10-31T15:05:13.817Z,101536.00
2022-10-31T15:08:01.041Z,101528.28
2022-10-31T15:10:48.251Z,101530.38
2022-10-31T15:13:34.902Z,101529.63
2022-10-31T15:16:25.228Z,101522.66
2022-10-31T15:19:16.757Z,101528.00
2022-10-31T15:22:03.350Z,101523.59
2022-10-31T15:24:57.045Z,101532.94
2022-10-31T15:27:43.593Z,101530.84
2022-10-31T15:30:32.441Z,101524.31
2022-10-31T15:33:25.948Z,101521.06
2022-10-31T15:36:24.018Z,101529.28
2022-10-31T15:39:14.093Z,101520.69
2022-10-31T15:42:01.763Z,101520.84
2022-10-31T15:44:51.952Z,101521.06
2022-10-31T15:47:39.381Z,101524.94
2022-10-31T15:50:32.209Z,101515.34
2022-10-31T15:53:21.913Z,101518.34
2022-10-31T15:56:10.857Z,101518.69
2022-10-31T15:59:00.251Z,101513.53
2022-10-31T16:02:02.827Z,101519.06
2022-10-31T16:04:52.149Z,101515.88
2022-10-31T16:07:50.835Z,101517.75
2022-10-31T16:10:37.874Z,101521.25
2022-10-31T16:13:28.872Z,101521.41
2022-10-31T16:16:35.527Z,101522.47
2022-10-31T16:19:25.054Z,101524.16
2022-10-31T16:22:14.240Z,101522.50
2022-10-31T16:25:07.110Z,101525.38
2022-10-31T16:27:56.916Z,101528.22
2022-10-31T16:30:48.388Z,101529.72
2022-10-31T16:33:37.897Z,101532.38
2022-10-31T16:36:35.890Z,101538.97
2022-10-31T16:39:23.302Z,101523.44
2022-10-31T16:42:12.056Z,101532.97
2022-10-31T16:44:59.408Z,101536.31
2022-10-31T16:47:46.275Z,101531.66
2022-10-31T16:50:33.075Z,101537.72
2022-10-31T16:53:19.839Z,101532.34
2022-10-31T16:56:07.204Z,101529.47
2022-10-31T16:58:55.518Z,101535.47
2022-10-31T17:01:45.455Z,101533.53
2022-10-31T17:04:32.145Z,101532.72
2022-10-31T17:07:18.659Z,101530.59
2022-10-31T17:10:06.129Z,101528.91
2022-10-31T17:12:53.003Z,101528.22
2022-10-31T17:15:45.195Z,101530.06
2022-10-31T17:18:32.621Z,101536.28
2022-10-31T17:21:23.227Z,101527.34
2022-10-31T17:24:13.427Z,101526.22
2022-10-31T17:26:59.937Z,101533.53
2022-10-31T17:29:47.163Z,101526.38
2022-10-31T17:32:34.944Z,101517.66
2022-10-31T17:35:21.847Z,101518.63
2022-10-31T17:38:08.771Z,101524.94
2022-10-31T17:40:55.489Z,101516.13
2022-10-31T17:43:42.443Z,101509.78
2022-10-31T17:46:29.422Z,101510.91
2022-10-31T17:49:17.317Z,101511.75
2022-10-31T17:52:04.149Z,101513.59
2022-10-31T17:54:51.078Z,101506.63
2022-10-31T17:57:42.817Z,101504.03
2022-10-31T18:00:31.393Z,101510.31
2022-10-31T18:03:21.193Z,101504.19
2022-10-31T18:06:11.174Z,101509.56
2022-10-31T18:09:03.936Z,101505.88
2022-10-31T18:11:59.335Z,101501.31
2022-10-31T18:14:48.619Z,101496.09
2022-10-31T18:17:38.074Z,101502.38
2022-10-31T18:20:28.064Z,101502.34
2022-10-31T18:23:16.218Z,101494.25
2022-10-31T18:26:03.050Z,101501.84
2022-10-31T18:28:49.766Z,101496.81
2022-10-31T18:31:37.065Z,101495.22
2022-10-31T18:34:27.396Z,101500.69
2022-10-31T18:37:15.496Z,101493.78
2022-10-31T18:40:04.735Z,101491.16
2022-10-31T18:42:51.381Z,101494.66
2022-10-31T18:45:47.238Z,101490.19
2022-10-31T18:48:43.089Z,101493.84
2022-10-31T18:51:31.594Z,101489.41
2022-10-31T18:54:20.175Z,101490.63
2022-10-31T18:57:10.899Z,101486.63
2022-10-31T19:00:01.850Z,101483.19
2022-10-31T19:02:49.922Z,101477.31
2022-10-31T19:05:37.133Z,101470.25
2022-10-31T19:08:25.949Z,101466.56
2022-10-31T19:11:16.369Z,101463.59
2022-10-31T19:14:04.456Z,101472.34
2022-10-31T19:16:52.505Z,101462.00
2022-10-31T19:19:39.575Z,101471.13
2022-10-31T19:22:26.322Z,101459.56
2022-10-31T19:25:13.179Z,101461.84
2022-10-31T19:28:00.368Z,101460.94
2022-10-31T19:30:55.388Z,101457.00
2022-10-31T19:33:42.028Z,101452.34
2022-10-31T19:36:29.695Z,101450.53
2022-10-31T19:39:16.249Z,101453.25
2022-10-31T19:42:02.974Z,101455.97
2022-10-31T19:44:51.818Z,101441.94
2022-10-31T19:47:41.880Z,101450.69
2022-10-31T19:50:30.495Z,101440.03
2022-10-31T19:53:17.711Z,101443.81
2022-10-31T19:56:05.047Z,101446.59
2022-10-31T19:58:53.417Z,101437.44
2022-10-31T20:01:43.104Z,101449.66
2022-10-31T20:04:34.580Z,101444.59
2022-10-31T20:07:24.125Z,101444.75
2022-10-31T20:10:12.611Z,101444.69
2022-10-31T20:13:01.923Z,101442.13
2022-10-31T20:15:50.575Z,101427.84
2022-10-31T20:18:38.295Z,101445.28
2022-10-31T20:21:28.731Z,101434.66
2022-10-31T20:24:15.598Z,101435.28
2022-10-31T20:27:03.232Z,101420.50
2022-10-31T20:29:49.763Z,101429.50
2022-10-31T20:32:37.355Z,101431.25
2022-10-31T20:35:23.985Z,101428.53
2022-10-31T20:38:12.237Z,101421.66
2022-10-31T20:41:01.565Z,101419.00
2022-10-31T20:43:48.751Z,101405.44
2022-10-31T20:46:35.443Z,101411.69
2022-10-31T20:49:22.230Z,101405.47
2022-10-31T20:52:08.795Z,101409.22
2022-10-31T20:54:56.877Z,101400.41
2022-10-31T20:57:44.066Z,101407.69
2022-10-31T21:00:30.873Z,101400.31
2022-10-31T21:03:17.690Z,101404.09
2022-10-31T21:06:05.906Z,101403.38
2022-10-31T21:08:53.936Z,101397.84
2022-10-31T21:11:41.873Z,101392.69
2022-10-31T21:14:28.741Z,101398.00
2022-10-31T21:17:15.643Z,101398.88
2022-10-31T21:20:02.470Z,101396.13
2022-10-31T21:22:49.142Z,101392.03
2022-10-31T21:25:39.279Z,101381.94
2022-10-31T21:28:27.241Z,101380.50
2022-10-31T21:31:16.500Z,101379.47
2022-10-31T21:34:04.006Z,101374.16
2022-10-31T21:36:50.428Z,101368.13
2022-10-31T21:39:38.669Z,101362.59
2022-10-31T21:42:25.867Z,101362.91
2022-10-31T21:45:14.107Z,101367.38
2022-10-31T21:48:01.074Z,101363.66
2022-10-31T21:50:48.855Z,101359.47
2022-10-31T21:53:53.574Z,101357.78
2022-10-31T21:56:40.242Z,101350.84
2022-10-31T21:59:27.267Z,101347.09
2022-10-31T22:02:16.646Z,101339.22
2022-10-31T22:05:03.118Z,101332.16
2022-10-31T22:07:49.773Z,101325.09
2022-10-31T22:10:36.613Z,101326.94
2022-10-31T22:13:23.905Z,101326.03
2022-10-31T22:16:13.452Z,101328.78
2022-10-31T22:19:05.474Z,101328.47
2022-10-31T22:21:52.689Z,101308.81
2022-10-31T22:24:40.524Z,101314.47
2022-10-31T22:27:29.037Z,101315.28
2022-10-31T22:30:15.681Z,101305.75
2022-10-31T22:33:02.873Z,101311.75
2022-10-31T22:35:51.223Z,101309.41
2022-10-31T22:38:40.517Z,101315.66
2022-10-31T22:41:29.567Z,101318.19
2022-10-31T22:44:16.307Z,101314.66
2022-10-31T22:47:03.240Z,101313.84
2022-10-31T22:49:50.133Z,101303.03
2022-10-31T22:52:38.292Z,101303.25
2022-10-31T22:55:24.948Z,101303.00
2022-10-31T22:58:11.959Z,101304.91
2022-10-31T23:00:58.865Z,101296.91
2022-10-31T23:03:45.611Z,101294.25
2022-10-31T23:06:34.148Z,101289.25
2022-10-31T23:09:22.156Z,101298.22
2022-10-31T23:12:22.993Z,101285.63
2022-10-31T23:15:10.440Z,101295.34
2022-10-31T23:17:58.364Z,101296.91
2022-10-31T23:20:51.265Z,101294.31
2022-10-31T23:23:41.924Z,101286.09
2022-10-31T23:26:48.934Z,101276.53
2022-10-31T23:29:42.430Z,101279.16
2022-10-31T23:32:31.526Z,101265.53
2022-10-31T23:35:18.378Z,101254.28
2022-10-31T23:38:05.030Z,101249.78
2022-10-31T23:40:51.766Z,101252.31
2022-10-31T23:43:39.824Z,101252.03
2022-10-31T23:46:26.794Z,101253.13
2022-10-31T23:49:15.699Z,101259.38
2022-10-31T23:52:02.579Z,101258.47
2022-10-31T23:54:49.354Z,101245.25
2022-10-31T23:57:36.026Z,101237.13
